• Join FlightAware (Why Join?)
  • Login
  • US Flag 
09:01AM EST


 

Airport Tracker/Info


-or-


 

Live Flight TrackerFlight Track Log ✈ UCA3596 ✈ 06-Jan-2014 ✈ KIAD - KBGM

Flight Track Log - Related Links

Times and Time Zones

All times are in EST time to prevent confusion due to time zone crossing. See the UCA3596 flight status page for this flight to view local times or setup timezone preferences in your user account.

Time Position Orientation Groundspeed Altitude Reporting Facility
EST Latitude Longitude Course Direction KTS MPH feet Rate Location/Type
03:12PM 41.5321 -76.2995 19° North  Level Estimated
03:13PM 41.6079 -76.2640 19° North  Level Estimated
03:14PM 41.6838 -76.2284 19° North  Level Estimated
03:15PM 41.7596 -76.1927 19° North  Level Estimated
03:16PM 41.8068 -76.1704 19° North  Level Estimated
03:17PM 41.8541 -76.1481 19° North  Level Estimated
03:18PM 41.9013 -76.1258 19° North  Level Estimated
03:19PM 41.9485 -76.1034 19° North  Level Estimated
03:20PM 41.9958 -76.0810 19° North  Level Estimated
03:21PM 42.0430 -76.0585 19° North  Level Estimated
03:22PM 42.0902 -76.0360 19° North  Level Estimated
03:23PM 42.1374 -76.0135 19° North  Level Estimated
03:24PM 42.1846 -75.9910 19° North  Level Estimated
03:25PM 42.2084 -75.9796 20° North  Level Estimated
03:26PM 42.2084 -75.9796 35° Northeast  Level Estimated
03:27PM 42.2084 -75.9796 35° Northeast  Level Estimated
03:28PM 42.2084 -75.9796 35° Northeast  Level Estimated
03:29PM 42.2084 -75.9796 35° Northeast  Level Estimated
03:30PM 42.2084 -75.9796 35° Northeast  Level Estimated
03:31PM 42.2084 -75.9796 35° Northeast  Level Estimated
03:32PM 42.2084 -75.9796 35° Northeast  Level Estimated
03:33PM 42.2084 -75.9796 35° Northeast  Level Estimated
03:34PM 42.2084 -75.9796 35° Northeast  Level Estimated
03:35PM 42.2084 -75.9796 35° Northeast  Level Estimated
03:36PM 42.2084 -75.9796 35° Northeast  Level Estimated
03:37PM 42.2084 -75.9796 35° Northeast  Level Estimated
03:38PM 42.2084 -75.9796 35° Northeast  Level Estimated
03:39PM 42.2084 -75.9796 35° Northeast  Level Estimated
03:40PM 42.2084 -75.9796 35° Northeast  Level Estimated
03:41PM 42.2084 -75.9796 35° Northeast  Level Estimated
03:42PM 42.2084 -75.9796 35° Northeast  Level Estimated
03:43PM 42.2084 -75.9796 35° Northeast  Level Estimated
03:44PM 42.2084 -75.9796 35° Northeast  Level Estimated
03:45PM 42.2084 -75.9796 35° Northeast  Level Estimated
03:46PM 42.2084 -75.9796 35° Northeast  Level Estimated
03:47PM 42.2084 -75.9796 35° Northeast  Level Estimated
03:48PM 42.2084 -75.9796 35° Northeast  Level Estimated
03:49PM 42.2084 -75.9796 35° Northeast  Level Estimated
03:50PM 42.2084 -75.9796 35° Northeast  Level Estimated
03:51PM 42.2084 -75.9796 35° Northeast  Level Estimated
03:52PM 42.2084 -75.9796 35° Northeast  Level Estimated
03:53PM 42.2084 -75.9796 35° Northeast  Level Estimated
03:54PM 42.2084 -75.9796 35° Northeast  Level Estimated
03:55PM 42.2084 -75.9796 35° Northeast  Level Estimated
03:56PM 42.2084 -75.9796 35° Northeast  Level Estimated
03:57PM 42.2084 -75.9796 35° Northeast  Level Estimated
03:58PM 42.2084 -75.9796 35° Northeast  Level Estimated
03:59PM 42.2084 -75.9796 35° Northeast  Level Estimated
04:00PM 42.2084 -75.9796 35° Northeast  Level Estimated
04:01PM 42.2084 -75.9796 35° Northeast  Level Estimated
04:02PM 42.2084 -75.9796 35° Northeast  Level Estimated
04:03PM 42.2084 -75.9796 35° Northeast  Level Estimated